Wetterdaten: Woche 21.11.16 - 27.11.16 (KW47)
Datum Zeit Temperatur Luftfeuchte Luftdruck Niederschlag Windrichtung Sonnenschein Solar Wind
21.11.2016 00:00 1,6 C 96 % 1007,5 hPa 0,0 l/m N 0,00 h 0 W/m 0,0 km/h (0 Bft)
21.11.2016 01:00 1,2 C 96 % 1006,9 hPa 0,0 l/m W-SW 0,00 h 0 W/m 0,7 km/h (0 Bft)
21.11.2016 02:00 1,2 C 97 % 1006,8 hPa 0,0 l/m W-SW 0,00 h 0 W/m 4,5 km/h (1 Bft)
21.11.2016 03:00 1,3 C 97 % 1006,5 hPa 0,0 l/m N-NW 0,00 h 0 W/m 7,2 km/h (2 Bft)
21.11.2016 04:00 1,4 C 97 % 1006,2 hPa 0,0 l/m N-NW 0,00 h 0 W/m 7,1 km/h (2 Bft)
21.11.2016 05:00 1,6 C 97 % 1005,6 hPa 0,0 l/m N-NW 0,00 h 0 W/m 2,4 km/h (1 Bft)
21.11.2016 06:00 1,8 C 97 % 1005,3 hPa 0,0 l/m N-NW 0,00 h 0 W/m 4,4 km/h (1 Bft)
21.11.2016 07:00 1,9 C 97 % 1004,8 hPa 0,0 l/m N-NW 0,00 h 7 W/m 2,8 km/h (1 Bft)
21.11.2016 08:00 2,2 C 97 % 1004,5 hPa 0,0 l/m N-NW 0,00 h 21 W/m 1,6 km/h (1 Bft)
21.11.2016 09:00 3,2 C 97 % 1004,4 hPa 0,0 l/m N-NW 0,00 h 56 W/m 3,3 km/h (1 Bft)
21.11.2016 10:00 4,6 C 96 % 1004,3 hPa 0,0 l/m N-NW 0,08 h 128 W/m 2,1 km/h (1 Bft)
21.11.2016 11:00 7,5 C 90 % 1003,5 hPa 0,0 l/m N 0,42 h 197 W/m 0,3 km/h (0 Bft)
21.11.2016 12:00 9,5 C 87 % 1003,0 hPa 0,0 l/m N-NW 0,00 h 120 W/m 0,5 km/h (0 Bft)
21.11.2016 13:00 9,9 C 88 % 1003,1 hPa 0,0 l/m N 0,00 h 53 W/m 0,1 km/h (0 Bft)
21.11.2016 14:00 10,1 C 88 % 1003,5 hPa 0,0 l/m N-NW 0,00 h 41 W/m 1,5 km/h (1 Bft)
21.11.2016 15:00 9,9 C 88 % 1003,8 hPa 0,0 l/m N-NW 0,00 h 34 W/m 1,3 km/h (1 Bft)
21.11.2016 16:00 9,1 C 88 % 1004,0 hPa 0,0 l/m N-NW 0,00 h 10 W/m 3,1 km/h (1 Bft)
21.11.2016 17:00 7,8 C 88 % 1004,3 hPa 0,0 l/m N-NW 0,00 h 0 W/m 2,3 km/h (1 Bft)
21.11.2016 18:00 7,3 C 91 % 1004,5 hPa 0,0 l/m N-NW 0,00 h 0 W/m 3,1 km/h (1 Bft)
21.11.2016 19:00 8,0 C 89 % 1004,6 hPa 0,0 l/m N-NW 0,00 h 0 W/m 2,7 km/h (1 Bft)
21.11.2016 20:00 8,1 C 86 % 1004,7 hPa 0,0 l/m N 0,00 h 0 W/m 0,0 km/h (0 Bft)
21.11.2016 21:00 7,9 C 87 % 1004,8 hPa 0,0 l/m N 0,00 h 0 W/m 0,0 km/h (0 Bft)
21.11.2016 22:00 7,7 C 88 % 1004,6 hPa 0,0 l/m N 0,00 h 0 W/m 0,0 km/h (0 Bft)
21.11.2016 23:00 7,6 C 88 % 1004,8 hPa 0,0 l/m SW 0,00 h 0 W/m 5,5 km/h (1 Bft)
22.11.2016 00:00 11,5 C 71 % 1004,8 hPa 0,0 l/m SW 0,00 h 0 W/m 21,3 km/h (4 Bft)
22.11.2016 01:00 14,7 C 55 % 1005,5 hPa 0,0 l/m SW 0,00 h 0 W/m 25,1 km/h (4 Bft)
22.11.2016 02:00 15,0 C 53 % 1005,8 hPa 0,0 l/m SW 0,00 h 0 W/m 26,8 km/h (4 Bft)
22.11.2016 03:00 14,5 C 54 % 1005,9 hPa 0,0 l/m S-SW 0,00 h 0 W/m 21,3 km/h (4 Bft)
22.11.2016 04:00 14,0 C 55 % 1006,2 hPa 0,0 l/m SW 0,00 h 0 W/m 18,2 km/h (3 Bft)
22.11.2016 05:00 14,9 C 53 % 1007,0 hPa 0,0 l/m N-NW 0,00 h 0 W/m 16,2 km/h (3 Bft)
22.11.2016 06:00 11,3 C 75 % 1008,5 hPa 0,0 l/m N-NO 0,00 h 0 W/m 12,2 km/h (2 Bft)
22.11.2016 07:00 9,2 C 82 % 1009,3 hPa 0,0 l/m N-NO 0,00 h 5 W/m 4,0 km/h (1 Bft)
22.11.2016 08:00 8,2 C 86 % 1010,1 hPa 0,0 l/m N-NO 0,00 h 25 W/m 2,0 km/h (1 Bft)
22.11.2016 09:00 8,0 C 89 % 1010,6 hPa 0,0 l/m N 0,00 h 65 W/m 0,8 km/h (0 Bft)
22.11.2016 10:00 8,4 C 91 % 1010,9 hPa 0,0 l/m N-NO 0,00 h 76 W/m 3,3 km/h (1 Bft)
22.11.2016 11:00 8,8 C 90 % 1010,8 hPa 0,0 l/m N-NO 0,00 h 88 W/m 1,3 km/h (1 Bft)
22.11.2016 12:00 9,5 C 88 % 1010,6 hPa 0,0 l/m N-NO 0,00 h 107 W/m 4,8 km/h (1 Bft)
22.11.2016 13:00 9,9 C 88 % 1010,2 hPa 0,0 l/m N-NO 0,00 h 122 W/m 5,3 km/h (1 Bft)
22.11.2016 14:00 10,5 C 87 % 1009,9 hPa 0,0 l/m N-NO 0,00 h 93 W/m 6,4 km/h (2 Bft)
22.11.2016 15:00 10,0 C 88 % 1010,2 hPa 0,0 l/m N-NO 0,00 h 33 W/m 4,4 km/h (1 Bft)
22.11.2016 16:00 9,5 C 89 % 1010,4 hPa 0,0 l/m N-NO 0,00 h 8 W/m 2,8 km/h (1 Bft)
22.11.2016 17:00 8,9 C 91 % 1010,7 hPa 0,0 l/m N-NO 0,00 h 0 W/m 1,6 km/h (1 Bft)
22.11.2016 18:00 8,4 C 92 % 1011,3 hPa 0,0 l/m N-NO 0,00 h 0 W/m 2,1 km/h (1 Bft)
22.11.2016 19:00 8,0 C 93 % 1011,9 hPa 0,0 l/m N-NO 0,00 h 0 W/m 2,7 km/h (1 Bft)
22.11.2016 20:00 7,9 C 94 % 1012,2 hPa 0,0 l/m N-NO 0,00 h 0 W/m 1,3 km/h (1 Bft)
22.11.2016 21:00 7,7 C 95 % 1012,3 hPa 0,0 l/m N-NO 0,00 h 0 W/m 1,5 km/h (1 Bft)
22.11.2016 22:00 7,4 C 95 % 1012,7 hPa 0,0 l/m N-NW 0,00 h 0 W/m 7,4 km/h (2 Bft)
22.11.2016 23:00 7,0 C 96 % 1013,1 hPa 0,0 l/m N-NW 0,00 h 0 W/m 6,8 km/h (2 Bft)
23.11.2016 00:00 6,7 C 96 % 1013,1 hPa 0,0 l/m N-NW 0,00 h 0 W/m 4,5 km/h (1 Bft)
23.11.2016 01:00 6,3 C 96 % 1013,2 hPa 0,0 l/m N 0,00 h 0 W/m 0,0 km/h (0 Bft)
23.11.2016 02:00 6,0 C 97 % 1013,7 hPa 0,0 l/m N-NW 0,00 h 0 W/m 1,5 km/h (1 Bft)
23.11.2016 03:00 5,8 C 97 % 1013,9 hPa 0,0 l/m N-NW 0,00 h 0 W/m 2,3 km/h (1 Bft)
23.11.2016 04:00 5,8 C 97 % 1014,0 hPa 0,0 l/m N-NW 0,00 h 0 W/m 2,4 km/h (1 Bft)
23.11.2016 05:00 5,8 C 97 % 1014,2 hPa 0,0 l/m N 0,00 h 0 W/m 0,0 km/h (0 Bft)
23.11.2016 06:00 6,0 C 98 % 1014,5 hPa 0,0 l/m N 0,00 h 0 W/m 0,0 km/h (0 Bft)
23.11.2016 07:00 6,0 C 98 % 1014,9 hPa 0,0 l/m N-NW 0,00 h 6 W/m 2,8 km/h (1 Bft)
23.11.2016 08:00 6,1 C 98 % 1015,5 hPa 0,0 l/m N-NW 0,00 h 17 W/m 5,9 km/h (2 Bft)
23.11.2016 09:00 6,2 C 98 % 1015,7 hPa 0,0 l/m N 0,00 h 46 W/m 0,4 km/h (0 Bft)
23.11.2016 10:00 6,6 C 98 % 1015,8 hPa 0,0 l/m N-NW 0,00 h 79 W/m 0,8 km/h (0 Bft)
23.11.2016 11:00 7,4 C 98 % 1015,6 hPa 0,0 l/m N-NW 0,00 h 109 W/m 3,9 km/h (1 Bft)
23.11.2016 12:00 8,5 C 97 % 1015,1 hPa 0,0 l/m N-NW 0,42 h 188 W/m 3,5 km/h (1 Bft)
23.11.2016 13:00 9,3 C 94 % 1014,8 hPa 0,0 l/m N-NW 0,08 h 155 W/m 3,2 km/h (1 Bft)
23.11.2016 14:00 9,2 C 93 % 1014,9 hPa 0,0 l/m N 0,00 h 100 W/m 5,6 km/h (1 Bft)
23.11.2016 15:00 8,4 C 94 % 1015,0 hPa 0,0 l/m N 0,00 h 27 W/m 7,2 km/h (2 Bft)
23.11.2016 16:00 8,1 C 95 % 1014,9 hPa 0,0 l/m N-NO 0,00 h 11 W/m 5,7 km/h (1 Bft)
23.11.2016 17:00 7,3 C 94 % 1015,1 hPa 0,0 l/m N-NO 0,00 h 0 W/m 3,2 km/h (1 Bft)
23.11.2016 18:00 6,6 C 95 % 1015,4 hPa 0,0 l/m N-NO 0,00 h 0 W/m 3,9 km/h (1 Bft)
23.11.2016 19:00 6,3 C 96 % 1015,2 hPa 0,0 l/m N-NO 0,00 h 0 W/m 2,1 km/h (1 Bft)
23.11.2016 20:00 6,1 C 97 % 1014,9 hPa 0,0 l/m N-NO 0,00 h 0 W/m 1,6 km/h (1 Bft)
23.11.2016 21:00 6,1 C 97 % 1015,1 hPa 0,0 l/m N-NO 0,00 h 0 W/m 3,9 km/h (1 Bft)
23.11.2016 22:00 6,0 C 98 % 1014,9 hPa 0,0 l/m N-NO 0,00 h 0 W/m 5,8 km/h (1 Bft)
23.11.2016 23:00 5,9 C 98 % 1014,8 hPa 0,0 l/m N-NO 0,00 h 0 W/m 5,1 km/h (1 Bft)
24.11.2016 00:00 5,9 C 98 % 1014,7 hPa 0,0 l/m N-NO 0,00 h 0 W/m 5,5 km/h (1 Bft)
24.11.2016 01:00 5,8 C 98 % 1014,6 hPa 0,0 l/m NO 0,00 h 0 W/m 8,0 km/h (2 Bft)
24.11.2016 02:00 5,4 C 98 % 1014,7 hPa 0,0 l/m NO 0,00 h 0 W/m 8,0 km/h (2 Bft)
24.11.2016 03:00 5,3 C 99 % 1014,7 hPa 0,0 l/m NO 0,00 h 0 W/m 8,0 km/h (2 Bft)
24.11.2016 04:00 5,2 C 99 % 1014,5 hPa 0,0 l/m NO 0,00 h 0 W/m 9,3 km/h (2 Bft)
24.11.2016 05:00 5,1 C 99 % 1014,2 hPa 0,0 l/m NO 0,00 h 0 W/m 9,8 km/h (2 Bft)
24.11.2016 06:00 5,1 C 99 % 1014,3 hPa 0,0 l/m NO 0,00 h 0 W/m 8,0 km/h (2 Bft)
24.11.2016 07:00 4,9 C 99 % 1014,3 hPa 0,0 l/m O-NO 0,00 h 5 W/m 10,6 km/h (2 Bft)
24.11.2016 08:00 4,7 C 99 % 1014,8 hPa 0,0 l/m NO 0,00 h 21 W/m 10,9 km/h (2 Bft)
24.11.2016 09:00 4,6 C 99 % 1015,2 hPa 0,0 l/m NO 0,00 h 61 W/m 12,1 km/h (2 Bft)
24.11.2016 10:00 4,6 C 99 % 1015,5 hPa 0,0 l/m O-NO 0,00 h 70 W/m 12,9 km/h (3 Bft)
24.11.2016 11:00 4,9 C 99 % 1015,4 hPa 0,0 l/m NO 0,00 h 85 W/m 11,5 km/h (2 Bft)
24.11.2016 12:00 5,3 C 99 % 1015,1 hPa 0,0 l/m NO 0,00 h 77 W/m 12,9 km/h (3 Bft)
24.11.2016 13:00 5,4 C 99 % 1014,6 hPa 0,0 l/m O-NO 0,00 h 64 W/m 13,6 km/h (3 Bft)
24.11.2016 14:00 5,4 C 99 % 1014,7 hPa 0,0 l/m O-NO 0,00 h 48 W/m 15,6 km/h (3 Bft)
24.11.2016 15:00 5,4 C 98 % 1014,6 hPa 0,0 l/m O-NO 0,00 h 23 W/m 14,4 km/h (3 Bft)
24.11.2016 16:00 5,4 C 98 % 1014,6 hPa 0,0 l/m O-NO 0,00 h 7 W/m 16,0 km/h (3 Bft)
24.11.2016 17:00 5,1 C 98 % 1014,9 hPa 0,0 l/m O-NO 0,00 h 0 W/m 18,5 km/h (3 Bft)
24.11.2016 18:00 5,0 C 98 % 1014,9 hPa 0,0 l/m O-NO 0,00 h 0 W/m 14,9 km/h (3 Bft)
24.11.2016 19:00 4,9 C 98 % 1014,8 hPa 0,0 l/m O-NO 0,00 h 0 W/m 17,0 km/h (3 Bft)
24.11.2016 20:00 4,9 C 98 % 1015,2 hPa 0,0 l/m O-NO 0,00 h 0 W/m 15,0 km/h (3 Bft)
24.11.2016 21:00 5,0 C 99 % 1015,0 hPa 0,0 l/m O-NO 0,00 h 0 W/m 16,0 km/h (3 Bft)
24.11.2016 22:00 5,0 C 99 % 1014,9 hPa 0,0 l/m O-NO 0,00 h 0 W/m 18,9 km/h (3 Bft)
24.11.2016 23:00 4,8 C 98 % 1014,9 hPa 0,0 l/m O-NO 0,00 h 0 W/m 22,1 km/h (4 Bft)
25.11.2016 00:00 4,8 C 99 % 1014,5 hPa 0,0 l/m O-NO 0,00 h 0 W/m 21,5 km/h (4 Bft)
25.11.2016 01:00 4,8 C 99 % 1014,1 hPa 0,0 l/m O 0,00 h 0 W/m 20,5 km/h (4 Bft)
25.11.2016 02:00 4,7 C 99 % 1014,1 hPa 0,0 l/m O-NO 0,00 h 0 W/m 21,2 km/h (4 Bft)
25.11.2016 03:00 4,7 C 99 % 1013,7 hPa 0,0 l/m O-NO 0,00 h 0 W/m 19,8 km/h (4 Bft)
25.11.2016 04:00 4,6 C 99 % 1013,4 hPa 0,0 l/m O-NO 0,00 h 0 W/m 20,1 km/h (4 Bft)
25.11.2016 05:00 4,5 C 99 % 1013,1 hPa 0,0 l/m O-NO 0,00 h 0 W/m 18,0 km/h (3 Bft)
25.11.2016 06:00 4,3 C 99 % 1013,1 hPa 0,0 l/m O-NO 0,00 h 0 W/m 22,4 km/h (4 Bft)
25.11.2016 07:00 4,2 C 99 % 1013,3 hPa 0,0 l/m O-NO 0,00 h 0 W/m 19,7 km/h (3 Bft)
25.11.2016 08:00 4,2 C 99 % 1013,7 hPa 0,0 l/m O-NO 0,00 h 7 W/m 20,7 km/h (4 Bft)
25.11.2016 09:00 4,1 C 99 % 1014,1 hPa 0,0 l/m O 0,00 h 21 W/m 24,5 km/h (4 Bft)
25.11.2016 10:00 4,2 C 98 % 1014,5 hPa 0,0 l/m O-NO 0,00 h 34 W/m 24,4 km/h (4 Bft)
25.11.2016 11:00 4,2 C 98 % 1014,5 hPa 0,0 l/m O 0,00 h 62 W/m 23,2 km/h (4 Bft)
25.11.2016 12:00 4,4 C 98 % 1014,2 hPa 0,0 l/m O-NO 0,00 h 56 W/m 21,9 km/h (4 Bft)
25.11.2016 13:00 4,3 C 98 % 1014,3 hPa 0,0 l/m O 0,00 h 27 W/m 19,4 km/h (3 Bft)
25.11.2016 14:00 4,5 C 98 % 1014,5 hPa 0,0 l/m O 0,00 h 20 W/m 16,8 km/h (3 Bft)
25.11.2016 15:00 4,7 C 97 % 1015,3 hPa 0,0 l/m O 0,00 h 10 W/m 11,3 km/h (2 Bft)
25.11.2016 16:00 4,7 C 97 % 1015,7 hPa 0,0 l/m O 0,00 h 5 W/m 6,2 km/h (2 Bft)
25.11.2016 17:00 4,7 C 97 % 1016,3 hPa 0,0 l/m N 0,00 h 0 W/m 1,2 km/h (1 Bft)
25.11.2016 18:00 4,8 C 97 % 1016,8 hPa 0,0 l/m O 0,00 h 0 W/m 1,2 km/h (1 Bft)
25.11.2016 19:00 4,9 C 97 % 1016,7 hPa 0,0 l/m N 0,00 h 0 W/m 0,3 km/h (0 Bft)
25.11.2016 20:00 4,9 C 97 % 1016,6 hPa 0,0 l/m N 0,00 h 0 W/m 0,0 km/h (0 Bft)
25.11.2016 21:00 4,8 C 97 % 1016,6 hPa 0,0 l/m N 0,00 h 0 W/m 0,8 km/h (0 Bft)
25.11.2016 22:00 4,9 C 97 % 1016,8 hPa 0,0 l/m N 0,00 h 0 W/m 0,5 km/h (0 Bft)
25.11.2016 23:00 4,9 C 97 % 1016,9 hPa 0,0 l/m N 0,00 h 0 W/m 0,0 km/h (0 Bft)
26.11.2016 00:00 4,9 C 97 % 1016,7 hPa 0,0 l/m N 0,00 h 0 W/m 0,0 km/h (0 Bft)
26.11.2016 01:00 4,9 C 98 % 1016,8 hPa 0,0 l/m N 0,00 h 0 W/m 0,0 km/h (0 Bft)
26.11.2016 02:00 4,9 C 97 % 1016,9 hPa 0,0 l/m N 0,00 h 0 W/m 0,0 km/h (0 Bft)
26.11.2016 03:00 4,9 C 97 % 1016,7 hPa 0,0 l/m N 0,00 h 0 W/m 0,0 km/h (0 Bft)
26.11.2016 04:00 4,9 C 97 % 1016,5 hPa 0,0 l/m N 0,00 h 0 W/m 0,0 km/h (0 Bft)
26.11.2016 05:00 4,8 C 97 % 1016,6 hPa 0,0 l/m N 0,00 h 0 W/m 0,0 km/h (0 Bft)
26.11.2016 06:00 4,8 C 98 % 1016,3 hPa 0,0 l/m N 0,00 h 0 W/m 0,0 km/h (0 Bft)
26.11.2016 07:00 4,8 C 98 % 1016,4 hPa 0,0 l/m N 0,00 h 0 W/m 0,0 km/h (0 Bft)
26.11.2016 08:00 4,8 C 98 % 1016,7 hPa 0,0 l/m N 0,00 h 7 W/m 0,4 km/h (0 Bft)
26.11.2016 09:00 4,9 C 98 % 1016,8 hPa 0,0 l/m N 0,00 h 18 W/m 0,5 km/h (0 Bft)
26.11.2016 10:00 5,1 C 98 % 1016,5 hPa 0,0 l/m O 0,00 h 44 W/m 0,9 km/h (0 Bft)
26.11.2016 11:00 5,3 C 98 % 1016,3 hPa 0,0 l/m N 0,00 h 65 W/m 0,0 km/h (0 Bft)
26.11.2016 12:00 5,6 C 98 % 1016,1 hPa 0,0 l/m O 0,00 h 62 W/m 1,3 km/h (1 Bft)
26.11.2016 13:00 5,7 C 98 % 1015,8 hPa 0,0 l/m O 0,00 h 55 W/m 7,3 km/h (2 Bft)
26.11.2016 14:00 5,5 C 97 % 1015,8 hPa 0,0 l/m W-NW 0,00 h 45 W/m 6,3 km/h (2 Bft)
26.11.2016 15:00 5,4 C 96 % 1016,2 hPa 0,0 l/m W-NW 0,00 h 27 W/m 6,7 km/h (2 Bft)
26.11.2016 16:00 5,3 C 95 % 1016,1 hPa 0,0 l/m N 0,00 h 7 W/m 0,5 km/h (0 Bft)
26.11.2016 17:00 5,3 C 96 % 1016,3 hPa 0,0 l/m W 0,00 h 0 W/m 2,3 km/h (1 Bft)
26.11.2016 18:00 5,3 C 96 % 1016,4 hPa 0,0 l/m W 0,00 h 0 W/m 4,7 km/h (1 Bft)
26.11.2016 19:00 5,4 C 97 % 1016,5 hPa 0,0 l/m W-SW 0,00 h 0 W/m 6,4 km/h (2 Bft)
26.11.2016 20:00 5,4 C 97 % 1016,4 hPa 0,0 l/m W-SW 0,00 h 0 W/m 7,7 km/h (2 Bft)
26.11.2016 21:00 5,4 C 98 % 1016,4 hPa 0,0 l/m W-SW 0,00 h 0 W/m 8,3 km/h (2 Bft)
26.11.2016 22:00 5,5 C 98 % 1016,3 hPa 0,0 l/m SW 0,00 h 0 W/m 5,1 km/h (1 Bft)
26.11.2016 23:00 5,7 C 98 % 1016,4 hPa 0,0 l/m N 0,00 h 0 W/m 0,9 km/h (0 Bft)
27.11.2016 00:00 5,8 C 98 % 1016,2 hPa 0,0 l/m SW 0,00 h 0 W/m 2,7 km/h (1 Bft)
27.11.2016 01:00 5,9 C 99 % 1015,7 hPa 0,0 l/m SW 0,00 h 0 W/m 10,4 km/h (2 Bft)
27.11.2016 02:00 6,1 C 98 % 1015,6 hPa 0,0 l/m W-SW 0,00 h 0 W/m 5,6 km/h (1 Bft)
27.11.2016 03:00 5,9 C 98 % 1015,7 hPa 0,0 l/m N 0,00 h 0 W/m 0,0 km/h (0 Bft)
27.11.2016 04:00 5,9 C 98 % 1015,6 hPa 0,0 l/m W-SW 0,00 h 0 W/m 1,3 km/h (1 Bft)
27.11.2016 05:00 6,0 C 99 % 1015,7 hPa 0,0 l/m W-SW 0,00 h 0 W/m 1,6 km/h (1 Bft)
27.11.2016 06:00 6,1 C 98 % 1015,6 hPa 0,2 l/m N 0,00 h 0 W/m 0,0 km/h (0 Bft)
27.11.2016 07:00 5,9 C 98 % 1016,0 hPa 0,0 l/m W-SW 0,00 h 0 W/m 2,4 km/h (1 Bft)
27.11.2016 08:00 5,7 C 98 % 1016,4 hPa 0,2 l/m W-SW 0,00 h 14 W/m 1,5 km/h (1 Bft)
27.11.2016 09:00 5,6 C 99 % 1016,5 hPa 0,0 l/m W-SW 0,00 h 30 W/m 2,4 km/h (1 Bft)
27.11.2016 10:00 5,8 C 98 % 1016,6 hPa 0,0 l/m W-SW 0,00 h 78 W/m 1,3 km/h (1 Bft)
27.11.2016 11:00 6,1 C 97 % 1016,5 hPa 0,0 l/m W 0,00 h 103 W/m 3,6 km/h (1 Bft)
27.11.2016 12:00 6,5 C 93 % 1016,0 hPa 0,0 l/m N-NW 0,00 h 86 W/m 8,2 km/h (2 Bft)
27.11.2016 13:00 6,6 C 91 % 1015,5 hPa 0,0 l/m N 0,00 h 76 W/m 6,3 km/h (2 Bft)
27.11.2016 14:00 6,5 C 88 % 1015,2 hPa 0,0 l/m N 0,00 h 52 W/m 7,5 km/h (2 Bft)
27.11.2016 15:00 6,2 C 84 % 1015,1 hPa 0,0 l/m N-NO 0,00 h 34 W/m 9,9 km/h (2 Bft)
27.11.2016 16:00 5,9 C 85 % 1015,3 hPa 0,0 l/m N-NO 0,00 h 8 W/m 5,6 km/h (1 Bft)
27.11.2016 17:00 5,4 C 87 % 1015,7 hPa 0,0 l/m N-NO 0,00 h 0 W/m 9,4 km/h (2 Bft)
27.11.2016 18:00 5,0 C 89 % 1016,3 hPa 0,0 l/m N-NO 0,00 h 0 W/m 13,0 km/h (3 Bft)
27.11.2016 19:00 4,7 C 90 % 1016,8 hPa 0,0 l/m N-NO 0,00 h 0 W/m 18,4 km/h (3 Bft)
27.11.2016 20:00 3,9 C 92 % 1017,2 hPa 0,0 l/m NO 0,00 h 0 W/m 5,6 km/h (1 Bft)
27.11.2016 21:00 3,5 C 92 % 1017,6 hPa 0,0 l/m NO 0,00 h 0 W/m 7,1 km/h (2 Bft)
27.11.2016 22:00 3,3 C 91 % 1017,4 hPa 0,0 l/m O-NO 0,00 h 0 W/m 6,8 km/h (2 Bft)
27.11.2016 23:00 3,0 C 90 % 1017,4 hPa 0,0 l/m O-NO 0,00 h 0 W/m 10,3 km/h (2 Bft)
Min-Datum _ 21.11.16 22.11.16 21.11.16 - - - - 21.11.16
_ Min-Zeit 02:50 05:15 12:40 - - - - 00:00
Minimum _ 1,1 C 50 % 1002,8 hPa - - - - 0,0 km/h (0 Bft)
Max-Datum _ 22.11.16 24.11.16 27.11.16 27.11.16 - 21.11.16 21.11.16 22.11.16
_ Max-Zeit 05:15 12:10 21:15 06:40 - 10:55 11:00 00:40
Maximum _ 15,2 C 100 % 1017,7 hPa 0,2 l/m - 0,08 h 374 W/m 35,4 km/h
SW (5 Bft)
Durchschnitt _ 6,1 C 94 % 1013,1 hPa #0,4 l/m O-NO #1:00 h 53 W/m 7,0 km/h (2 Bft)